Time;durP1;ratioP1;P1;durP2;ratioP2;P2;SDS_P1;SDS_P2;PMS_P1;PMS_P2;Temp;Humidity;BMP_temperature;BMP_pressure;BME280_temperature;BME280_humidity;BME280_pressure;Samples;Min_cycle;Max_cycle;Signal;HPM_P1;HPM_P2
2021/05/04 00:01:31;;;;;;;24.05;15.27;;;;;;;7.93;100.00;100174.59;5024544;28;20057;-81
2021/05/04 00:03:56;;;;;;;24.50;14.88;;;;;;;7.73;100.00;100156.09;5000007;28;20464;-79
2021/05/04 00:06:22;;;;;;;24.25;15.13;;;;;;;8.05;100.00;100150.34;5012172;28;20031;-80
2021/05/04 00:08:48;;;;;;;24.17;15.13;;;;;;;8.21;100.00;100134.22;5011276;28;20044;-80
2021/05/04 00:11:13;;;;;;;24.40;15.15;;;;;;;8.52;100.00;100127.97;4998648;28;20037;-81
2021/05/04 00:13:39;;;;;;;25.70;15.32;;;;;;;8.56;100.00;100110.03;5017716;28;20034;-82
2021/05/04 00:16:04;;;;;;;20.25;13.90;;;;;;;8.30;100.00;100105.31;5014947;28;20069;-81
2021/05/04 00:18:30;;;;;;;23.33;14.73;;;;;;;8.28;100.00;100096.84;5015902;28;20406;-80
2021/05/04 00:20:56;;;;;;;22.65;14.93;;;;;;;8.59;100.00;100093.25;4989440;28;20045;-81
2021/05/04 00:23:22;;;;;;;22.88;14.90;;;;;;;8.34;100.00;100082.03;5010642;28;20081;-80
2021/05/04 00:25:47;;;;;;;23.63;14.63;;;;;;;8.12;100.00;100075.44;5031396;22;20802;-77
2021/05/04 00:28:12;;;;;;;20.27;13.27;;;;;;;8.34;100.00;100057.09;5029576;28;20731;-77
2021/05/04 00:30:39;;;;;;;21.63;13.55;;;;;;;8.44;99.72;100027.03;5043015;28;20064;-77
2021/05/04 00:33:05;;;;;;;20.83;13.38;;;;;;;8.31;100.00;100017.56;5048999;28;20037;-77
2021/05/04 00:35:30;;;;;;;23.65;14.05;;;;;;;8.46;100.00;99998.69;5049376;28;20039;-77
2021/05/04 00:37:56;;;;;;;23.42;13.30;;;;;;;8.75;99.25;99990.00;5021168;28;20103;-77
2021/05/04 00:40:21;;;;;;;19.95;13.10;;;;;;;8.76;98.82;99972.78;5015914;28;20040;-77
2021/05/04 00:42:47;;;;;;;20.63;13.45;;;;;;;8.68;98.09;99971.09;5033265;28;20133;-77
2021/05/04 00:45:13;;;;;;;17.65;12.45;;;;;;;8.73;97.71;99952.00;5010886;28;20129;-77
2021/05/04 00:47:39;;;;;;;19.90;12.15;;;;;;;8.81;97.40;99951.00;5029742;28;20100;-77
2021/05/04 00:50:05;;;;;;;20.60;12.63;;;;;;;8.79;97.83;99944.41;5027372;28;20026;-77
2021/05/04 00:52:32;;;;;;;20.60;12.82;;;;;;;8.87;97.44;99930.75;5018088;28;20095;-77
2021/05/04 00:54:57;;;;;;;17.02;12.70;;;;;;;8.74;98.26;99932.09;5031358;28;20037;-78
2021/05/04 00:57:23;;;;;;;20.55;12.50;;;;;;;8.95;97.77;99915.53;5031876;28;20560;-77
2021/05/04 00:59:51;;;;;;;19.73;12.60;;;;;;;9.03;97.34;99912.59;5008521;28;20056;-78
2021/05/04 01:02:17;;;;;;;20.67;12.80;;;;;;;8.94;97.44;99900.56;5027059;28;20030;-77
2021/05/04 01:04:45;;;;;;;20.10;13.30;;;;;;;8.59;98.54;99890.06;5033661;28;20037;-77
2021/05/04 01:07:10;;;;;;;17.88;12.40;;;;;;;8.44;97.76;99896.31;5032185;28;20073;-77
2021/05/04 01:09:36;;;;;;;19.55;12.57;;;;;;;8.48;99.26;99881.06;5014022;28;20033;-77
2021/05/04 01:12:02;;;;;;;17.17;11.60;;;;;;;8.50;98.95;99878.00;5035836;28;20052;-77
2021/05/04 01:14:27;;;;;;;18.27;12.18;;;;;;;8.49;99.77;99869.22;5038758;28;20041;-77
2021/05/04 01:16:55;;;;;;;17.52;11.93;;;;;;;8.59;99.26;99857.88;5014483;28;20025;-77
2021/05/04 01:19:22;;;;;;;17.15;11.50;;;;;;;8.46;98.49;99845.03;5016948;28;20532;-76
2021/05/04 01:21:49;;;;;;;15.25;10.82;;;;;;;8.63;95.96;99849.88;5031443;28;20033;-77
2021/05/04 01:24:15;;;;;;;15.57;10.73;;;;;;;8.51;95.61;99850.06;5026864;28;20037;-77
2021/05/04 01:26:51;;;;;;;15.15;10.80;;;;;;;8.62;94.27;99849.09;5037752;28;20099;-77
2021/05/04 01:29:16;;;;;;;14.68;8.98;;;;;;;8.62;93.62;99835.66;5030492;28;20129;-77
2021/05/04 01:31:42;;;;;;;14.93;10.00;;;;;;;8.72;93.00;99821.63;5010263;28;20496;-77
2021/05/04 01:34:09;;;;;;;15.13;9.40;;;;;;;8.63;92.46;99818.41;5017054;28;20040;-77
2021/05/04 01:36:35;;;;;;;14.23;9.60;;;;;;;8.67;91.17;99816.56;5030538;28;20033;-77
2021/05/04 01:39:04;;;;;;;14.77;9.10;;;;;;;8.52;91.23;99806.78;5029191;28;20031;-77
2021/05/04 01:41:30;;;;;;;14.32;9.57;;;;;;;8.64;90.92;99805.78;5030487;28;20033;-77
2021/05/04 01:43:58;;;;;;;11.93;8.50;;;;;;;8.64;89.98;99808.47;5030990;28;20398;-77
2021/05/04 01:46:24;;;;;;;11.65;8.32;;;;;;;8.92;89.62;99792.75;5004480;28;20034;-76
2021/05/04 01:48:49;;;;;;;10.77;8.18;;;;;;;8.94;88.83;99788.56;5035305;28;20033;-76
2021/05/04 01:51:15;;;;;;;12.73;8.88;;;;;;;9.02;88.95;99768.72;5028038;28;20026;-77
2021/05/04 01:53:41;;;;;;;14.80;8.73;;;;;;;8.84;89.13;99781.16;5014143;28;20044;-77
2021/05/04 01:56:06;;;;;;;14.18;8.93;;;;;;;8.66;89.81;99765.94;5019476;28;20025;-77
2021/05/04 01:58:32;;;;;;;13.77;8.30;;;;;;;8.82;90.47;99759.28;5025360;28;20037;-77
2021/05/04 02:00:57;;;;;;;11.40;8.25;;;;;;;8.64;90.97;99746.75;5013959;28;20404;-77
2021/05/04 02:03:23;;;;;;;12.90;7.85;;;;;;;8.60;89.86;99744.03;5035355;28;20549;-77
2021/05/04 02:05:48;;;;;;;12.70;8.90;;;;;;;8.81;90.10;99733.56;5023428;28;20036;-77
2021/05/04 02:08:14;;;;;;;10.82;7.97;;;;;;;8.67;88.92;99717.28;5035324;28;20409;-76
2021/05/04 02:10:40;;;;;;;11.90;8.43;;;;;;;8.55;89.17;99706.78;5032658;28;20044;-77
2021/05/04 02:13:06;;;;;;;11.60;8.00;;;;;;;8.89;87.76;99702.97;5018697;28;20751;-77
2021/05/04 02:15:32;;;;;;;10.27;7.40;;;;;;;8.92;87.53;99693.41;5035500;28;20037;-77
2021/05/04 02:17:57;;;;;;;10.60;7.82;;;;;;;8.55;89.31;99684.53;5017190;28;20439;-77
2021/05/04 02:20:23;;;;;;;14.07;8.05;;;;;;;8.64;88.06;99693.06;5015458;28;20033;-77
2021/05/04 02:22:48;;;;;;;11.02;7.93;;;;;;;8.67;88.72;99676.25;5030681;28;20080;-77
2021/05/04 02:25:14;;;;;;;11.10;7.85;;;;;;;8.66;89.86;99667.44;5027351;28;20041;-77
2021/05/04 02:27:40;;;;;;;10.23;7.45;;;;;;;8.72;88.01;99665.19;5043471;28;20033;-77
2021/05/04 02:30:06;;;;;;;9.70;7.13;;;;;;;8.67;87.47;99660.91;5037712;28;20103;-77
2021/05/04 02:32:34;;;;;;;10.95;7.05;;;;;;;8.64;88.94;99642.88;5037116;28;20038;-77
2021/05/04 02:35:01;;;;;;;10.02;7.72;;;;;;;8.53;90.81;99625.88;5032646;28;20068;-77
2021/05/04 02:37:26;;;;;;;11.02;7.97;;;;;;;8.55;92.10;99591.41;5031580;28;20125;-77
2021/05/04 02:39:52;;;;;;;13.95;7.88;;;;;;;8.56;91.65;99613.63;5009171;28;20113;-77
2021/05/04 02:42:17;;;;;;;11.85;7.97;;;;;;;8.51;91.83;99609.38;5032663;28;20544;-78
2021/05/04 02:44:42;;;;;;;10.68;7.47;;;;;;;8.70;91.97;99597.69;5041391;28;20499;-77
2021/05/04 02:47:08;;;;;;;9.75;7.55;;;;;;;8.88;90.75;99561.81;5044336;28;20344;-77
2021/05/04 02:49:33;;;;;;;11.52;7.88;;;;;;;8.71;92.31;99537.53;5032895;28;20037;-77
2021/05/04 02:51:59;;;;;;;12.23;7.95;;;;;;;8.68;92.22;99524.81;5022756;28;20032;-77
2021/05/04 02:54:24;;;;;;;12.68;8.27;;;;;;;8.79;92.37;99502.31;5032943;28;20413;-77
2021/05/04 02:56:50;;;;;;;12.00;7.35;;;;;;;8.83;92.59;99499.66;5028026;28;20033;-77
2021/05/04 02:59:15;;;;;;;10.80;7.63;;;;;;;8.99;91.61;99500.94;5032457;28;20037;-77
2021/05/04 03:01:41;;;;;;;15.02;7.40;;;;;;;8.93;92.05;99482.88;5033482;28;20030;-77
2021/05/04 03:04:06;;;;;;;10.82;7.57;;;;;;;8.95;91.94;99453.72;5032180;28;20188;-77
2021/05/04 03:06:32;;;;;;;11.07;7.53;;;;;;;9.23;90.87;99475.41;5032834;28;20041;-77
2021/05/04 03:08:58;;;;;;;9.80;7.40;;;;;;;8.99;90.56;99458.00;5033306;28;20043;-77
2021/05/04 03:11:24;;;;;;;9.57;6.95;;;;;;;8.80;90.10;99452.88;5031078;28;20110;-78
2021/05/04 03:13:50;;;;;;;10.20;6.95;;;;;;;8.81;90.31;99426.78;5021492;28;20117;-78
2021/05/04 03:16:15;;;;;;;10.80;7.22;;;;;;;8.94;92.06;99452.94;5033513;28;20084;-77
2021/05/04 03:18:41;;;;;;;9.98;7.65;;;;;;;8.76;89.69;99446.69;5033441;28;20120;-77
2021/05/04 03:21:06;;;;;;;9.18;6.90;;;;;;;8.77;90.13;99416.03;5019888;28;20034;-77
2021/05/04 03:23:32;;;;;;;9.98;6.95;;;;;;;8.84;89.71;99423.38;5033294;28;20103;-77
2021/05/04 03:25:57;;;;;;;10.02;6.65;;;;;;;9.09;88.13;99411.66;5033007;28;20029;-77
2021/05/04 03:28:23;;;;;;;8.65;5.93;;;;;;;8.88;87.10;99405.38;5030070;28;20037;-77
2021/05/04 03:30:48;;;;;;;8.93;6.40;;;;;;;8.99;88.10;99408.88;5036410;28;20045;-77
2021/05/04 03:33:14;;;;;;;9.27;5.95;;;;;;;8.97;85.57;99414.63;5040060;28;20041;-77
2021/05/04 03:35:40;;;;;;;8.73;5.63;;;;;;;8.96;84.92;99406.97;5018600;28;20136;-77
2021/05/04 03:38:05;;;;;;;9.50;6.03;;;;;;;9.04;85.41;99385.13;5020371;28;20598;-78
2021/05/04 03:40:31;;;;;;;8.05;5.68;;;;;;;9.28;85.92;99389.09;5007720;28;20056;-77
2021/05/04 03:42:58;;;;;;;8.93;5.93;;;;;;;9.31;86.22;99387.59;5029401;28;20114;-77
2021/05/04 03:45:24;;;;;;;8.90;5.63;;;;;;;9.33;84.88;99369.16;5032184;28;20164;-77
2021/05/04 03:47:50;;;;;;;8.43;5.47;;;;;;;9.42;84.78;99364.22;5045091;28;20510;-78
2021/05/04 03:50:23;;;;;;;7.82;5.78;;;;;;;9.07;85.52;99357.53;5032216;28;20497;-77
2021/05/04 03:52:51;;;;;;;9.63;5.53;;;;;;;9.25;85.76;99348.78;5029448;28;20089;-77
2021/05/04 03:55:17;;;;;;;7.40;5.10;;;;;;;9.36;84.41;99346.91;5023743;28;20029;-77
2021/05/04 03:57:42;;;;;;;6.53;5.15;;;;;;;9.41;83.34;99333.09;5009605;28;20037;-77
2021/05/04 04:00:10;;;;;;;9.40;5.07;;;;;;;9.44;83.30;99330.44;5023343;28;20044;-77
2021/05/04 04:02:36;;;;;;;9.50;5.18;;;;;;;9.36;83.26;99307.41;5019522;28;20032;-77
2021/05/04 04:05:03;;;;;;;7.45;5.60;;;;;;;9.29;85.76;99296.59;5007852;28;20401;-77
2021/05/04 04:07:29;;;;;;;9.35;4.70;;;;;;;9.54;84.68;99288.63;5020963;28;20059;-77
2021/05/04 04:09:54;;;;;;;10.90;5.22;;;;;;;9.42;86.03;99289.75;5048766;28;20037;-77
2021/05/04 04:12:20;;;;;;;10.13;5.60;;;;;;;9.45;84.56;99272.88;5004979;28;20049;-77
2021/05/04 04:14:45;;;;;;;7.18;4.75;;;;;;;9.63;84.65;99262.16;5035043;28;20319;-77
2021/05/04 04:17:11;;;;;;;5.80;4.80;;;;;;;9.66;83.59;99275.59;5030365;28;20053;-77
2021/05/04 04:19:36;;;;;;;5.75;4.85;;;;;;;9.74;82.75;99268.28;5012838;28;20034;-77
2021/05/04 04:22:02;;;;;;;6.85;4.93;;;;;;;9.43;85.69;99274.38;5032787;28;20037;-77
2021/05/04 04:24:28;;;;;;;6.55;5.05;;;;;;;9.77;84.28;99272.91;5034670;28;20462;-77
2021/05/04 04:26:54;;;;;;;8.02;4.47;;;;;;;9.61;85.33;99285.94;5013881;28;20116;-78
2021/05/04 04:29:19;;;;;;;5.85;4.28;;;;;;;9.76;85.49;99271.38;5026483;28;20104;-77
2021/05/04 04:31:45;;;;;;;7.60;5.05;;;;;;;9.69;85.30;99263.31;5030893;28;20088;-78
2021/05/04 04:34:10;;;;;;;6.72;4.50;;;;;;;9.53;84.64;99257.53;5031350;28;20535;-77
2021/05/04 04:36:36;;;;;;;11.68;4.63;;;;;;;9.57;87.11;99263.66;5038481;28;20112;-77
2021/05/04 04:39:02;;;;;;;5.97;4.43;;;;;;;9.34;86.04;99252.50;5028872;28;20025;-77
2021/05/04 04:41:28;;;;;;;6.97;4.70;;;;;;;9.48;87.24;99250.63;5011571;28;20405;-77
2021/05/04 04:43:54;;;;;;;5.57;4.35;;;;;;;9.40;87.72;99237.53;5026145;28;20033;-77
2021/05/04 04:46:20;;;;;;;7.25;4.72;;;;;;;9.58;88.13;99227.59;4993271;28;20042;-77
2021/05/04 04:48:45;;;;;;;7.88;5.13;;;;;;;9.39;88.09;99219.91;5031852;28;20167;-78
2021/05/04 04:51:11;;;;;;;5.47;4.45;;;;;;;9.47;88.36;99221.44;5030489;28;20081;-77
2021/05/04 04:53:36;;;;;;;6.63;4.63;;;;;;;9.40;88.02;99221.44;5029655;28;20108;-77
2021/05/04 04:56:02;;;;;;;6.78;4.65;;;;;;;9.38;86.86;99213.75;5024604;28;20028;-77
2021/05/04 04:58:27;;;;;;;6.75;4.43;;;;;;;9.60;86.79;99207.22;5011479;28;20029;-77
2021/05/04 05:00:54;;;;;;;6.72;4.68;;;;;;;9.48;87.13;99209.53;4989744;28;20033;-77
2021/05/04 05:03:20;;;;;;;6.18;4.45;;;;;;;9.60;86.95;99209.19;5028845;28;20104;-77
2021/05/04 05:05:46;;;;;;;7.88;4.63;;;;;;;9.60;86.58;99206.50;5032216;28;20068;-77
2021/05/04 05:08:11;;;;;;;6.28;4.80;;;;;;;9.69;86.64;99198.81;5015085;28;20112;-77
2021/05/04 05:10:36;;;;;;;6.28;4.70;;;;;;;9.79;86.95;99198.03;5013683;28;20490;-77
2021/05/04 05:13:02;;;;;;;6.05;4.80;;;;;;;9.55;89.02;99186.13;5022395;28;20115;-78
2021/05/04 05:15:29;;;;;;;6.30;4.82;;;;;;;9.61;88.90;99187.28;4997505;28;20033;-77
2021/05/04 05:17:54;;;;;;;8.18;5.00;;;;;;;9.82;89.79;99176.53;5027518;28;20530;-77
2021/05/04 05:20:20;;;;;;;5.25;4.50;;;;;;;9.49;89.53;99186.88;5021673;28;20044;-76
2021/05/04 05:22:45;;;;;;;7.40;4.80;;;;;;;9.52;91.34;99180.75;5024541;28;20036;-77
2021/05/04 05:25:11;;;;;;;7.78;5.15;;;;;;;9.63;91.60;99179.59;5028178;28;20126;-77
2021/05/04 05:27:37;;;;;;;6.75;4.97;;;;;;;9.75;91.37;99170.38;5021762;28;20091;-78
2021/05/04 05:30:08;;;;;;;7.10;4.78;;;;;;;9.47;92.62;99165.00;5021852;28;20049;-77
2021/05/04 05:32:33;;;;;;;7.83;4.67;;;;;;;9.49;93.82;99165.38;5008474;28;20033;-77
2021/05/04 05:35:00;;;;;;;5.80;4.90;;;;;;;9.56;93.96;99152.72;5012459;28;20513;-77
2021/05/04 05:37:26;;;;;;;9.27;5.38;;;;;;;9.65;93.61;99144.28;4987990;28;20065;-77
2021/05/04 05:39:51;;;;;;;7.75;4.80;;;;;;;9.53;94.57;99142.75;5007887;28;20489;-78
2021/05/04 05:42:18;;;;;;;7.18;5.35;;;;;;;9.46;95.30;99140.06;5014715;28;20026;-77
2021/05/04 05:44:44;;;;;;;5.78;4.75;;;;;;;9.56;95.63;99143.91;5000920;28;20060;-78
2021/05/04 05:47:09;;;;;;;6.03;4.85;;;;;;;9.72;95.69;99142.34;5022814;28;20458;-78
2021/05/04 05:49:35;;;;;;;7.35;5.28;;;;;;;9.65;96.63;99136.22;5035455;28;20079;-78
2021/05/04 05:52:01;;;;;;;9.40;5.10;;;;;;;9.71;97.19;99134.69;5027540;28;20477;-78
2021/05/04 05:54:27;;;;;;;10.60;5.18;;;;;;;9.32;99.79;99133.91;5008237;28;20048;-78
2021/05/04 05:56:53;;;;;;;6.82;5.13;;;;;;;9.39;99.51;99125.88;5009215;28;20454;-77
2021/05/04 05:59:18;;;;;;;8.95;6.13;;;;;;;9.39;100.00;99112.44;5014232;28;20073;-78
2021/05/04 06:01:44;;;;;;;10.25;6.05;;;;;;;9.34;100.00;99115.50;5024686;28;20040;-78
2021/05/04 06:04:09;;;;;;;6.97;5.53;;;;;;;9.46;100.00;99117.81;5028161;28;20108;-78
2021/05/04 06:06:35;;;;;;;9.02;6.25;;;;;;;9.43;100.00;99116.66;5026452;28;20025;-78
2021/05/04 06:09:00;;;;;;;7.75;5.80;;;;;;;9.37;100.00;99106.69;5022823;28;20030;-78
2021/05/04 06:11:26;;;;;;;8.63;5.80;;;;;;;8.95;100.00;99105.50;5010879;28;20026;-78
2021/05/04 06:13:54;;;;;;;9.00;6.35;;;;;;;9.05;100.00;99099.38;5006922;28;20038;-78
2021/05/04 06:16:19;;;;;;;11.65;6.00;;;;;;;9.03;100.00;99082.91;5020286;28;20037;-78
2021/05/04 06:18:45;;;;;;;9.07;6.00;;;;;;;9.13;100.00;99085.97;5012564;28;20033;-78
2021/05/04 06:21:10;;;;;;;9.00;6.28;;;;;;;9.06;100.00;99065.22;5027770;28;20421;-78
2021/05/04 06:23:35;;;;;;;10.07;6.28;;;;;;;8.95;100.00;99067.16;5019940;28;20061;-78
2021/05/04 06:26:01;;;;;;;9.40;6.82;;;;;;;9.02;100.00;99067.16;5025014;28;20444;-78
2021/05/04 06:28:27;;;;;;;8.75;6.20;;;;;;;8.98;100.00;99059.09;5041408;22;20048;-81
2021/05/04 06:30:53;;;;;;;8.68;6.63;;;;;;;9.23;100.00;99042.22;4996890;28;20508;-81
2021/05/04 06:33:18;;;;;;;8.25;6.25;;;;;;;9.13;100.00;99043.00;5013944;28;20026;-81
2021/05/04 06:35:48;;;;;;;8.50;6.15;;;;;;;9.36;100.00;99046.03;5028984;28;20038;-80
2021/05/04 06:38:15;;;;;;;7.45;5.57;;;;;;;9.40;100.00;99038.75;5006472;28;20034;-80
2021/05/04 06:40:42;;;;;;;7.20;5.43;;;;;;;9.19;100.00;99022.66;5022091;28;20071;-79
2021/05/04 06:43:08;;;;;;;8.50;5.38;;;;;;;9.26;100.00;99033.38;5000015;28;20093;-79
2021/05/04 06:45:34;;;;;;;10.50;5.90;;;;;;;9.19;100.00;99012.69;5013555;28;20061;-81
2021/05/04 06:47:59;;;;;;;9.38;6.07;;;;;;;9.31;100.00;99012.28;5012298;28;20113;-80
2021/05/04 06:50:25;;;;;;;7.47;5.90;;;;;;;9.50;100.00;99000.34;5017652;28;20596;-81
2021/05/04 06:52:51;;;;;;;11.27;5.68;;;;;;;9.54;100.00;99006.50;5021982;28;20118;-79
2021/05/04 06:55:16;;;;;;;7.95;5.43;;;;;;;9.57;100.00;99005.69;5000755;28;20048;-81
2021/05/04 06:58:02;;;;;;;10.93;5.70;;;;;;;9.63;100.00;98999.53;5019035;28;20030;-79
2021/05/04 07:00:27;;;;;;;6.68;5.72;;;;;;;9.84;100.00;98982.56;4919341;29;20036;-82
2021/05/04 07:02:53;;;;;;;6.45;5.18;;;;;;;9.55;100.00;98984.59;4922420;29;20178;-80
2021/05/04 07:05:19;;;;;;;12.43;5.53;;;;;;;9.39;100.00;98972.75;4923772;29;20539;-80
2021/05/04 07:07:45;;;;;;;7.30;5.50;;;;;;;9.64;100.00;98979.56;4902196;29;20094;-82
2021/05/04 07:10:11;;;;;;;8.10;5.40;;;;;;;9.76;100.00;98986.44;4926983;29;20122;-80
2021/05/04 07:12:37;;;;;;;7.65;5.28;;;;;;;9.50;100.00;98966.19;4923542;29;20048;-81
2021/05/04 07:15:03;;;;;;;6.63;4.63;;;;;;;9.32;100.00;98964.69;4920548;29;20046;-80
2021/05/04 07:17:28;;;;;;;6.03;4.63;;;;;;;9.64;100.00;98958.06;4919781;29;20134;-79
2021/05/04 07:19:55;;;;;;;6.15;4.72;;;;;;;9.68;100.00;98947.28;4925249;29;20075;-77
2021/05/04 07:22:24;;;;;;;6.15;4.78;;;;;;;9.85;100.00;98946.47;4927300;29;20058;-81
2021/05/04 07:24:50;;;;;;;7.20;5.32;;;;;;;9.88;100.00;98946.44;4922413;29;20055;-80
2021/05/04 07:27:16;;;;;;;6.03;4.30;;;;;;;9.91;100.00;98937.59;4924033;29;20047;-79
2021/05/04 07:29:41;;;;;;;4.80;4.30;;;;;;;10.08;100.00;98933.28;4922822;29;20044;-80
2021/05/04 07:32:07;;;;;;;6.53;4.35;;;;;;;10.03;100.00;98929.09;4920286;29;20083;-79
2021/05/04 07:34:33;;;;;;;5.22;4.00;;;;;;;9.97;100.00;98927.19;4914631;29;20080;-80
2021/05/04 07:36:58;;;;;;;6.03;4.45;;;;;;;10.26;100.00;98933.97;4925393;28;20077;-79
2021/05/04 07:39:24;;;;;;;5.03;4.00;;;;;;;10.27;100.00;98921.28;5003495;28;20036;-80
2021/05/04 07:41:50;;;;;;;10.07;3.95;;;;;;;10.44;100.00;98921.16;5017026;28;20050;-80
2021/05/04 07:44:15;;;;;;;6.90;3.60;;;;;;;10.24;100.00;98917.44;5018986;28;20020;-77
2021/05/04 07:46:41;;;;;;;7.93;3.65;;;;;;;10.42;100.00;98920.00;4994772;28;20069;-79
2021/05/04 07:49:10;;;;;;;4.45;3.35;;;;;;;10.31;99.66;98911.25;4997856;28;20052;-78
2021/05/04 07:51:36;;;;;;;7.47;3.50;;;;;;;10.30;100.00;98910.47;5012210;28;20030;-79
2021/05/04 07:54:02;;;;;;;7.90;3.22;;;;;;;10.35;99.46;98910.09;5016313;28;20079;-78
2021/05/04 07:56:27;;;;;;;4.57;3.35;;;;;;;10.36;100.00;98902.75;5010434;28;20120;-79
2021/05/04 07:58:53;;;;;;;4.63;3.40;;;;;;;10.24;100.00;98908.63;4994790;28;20042;-78
2021/05/04 08:01:18;;;;;;;5.82;3.60;;;;;;;10.11;100.00;98899.47;4986363;28;20073;-80
2021/05/04 08:03:44;;;;;;;6.32;3.38;;;;;;;10.23;100.00;98897.09;5007332;28;20061;-79
2021/05/04 08:06:09;;;;;;;4.68;3.30;;;;;;;10.50;100.00;98895.34;4992065;28;20029;-77
2021/05/04 08:08:35;;;;;;;3.60;3.05;;;;;;;10.38;98.79;98887.75;5010799;28;20065;-77
2021/05/04 08:11:01;;;;;;;3.88;3.00;;;;;;;10.39;99.77;98886.59;4993152;28;20117;-79
2021/05/04 08:13:27;;;;;;;5.28;3.15;;;;;;;10.49;99.40;98888.41;4994172;28;20034;-77
2021/05/04 08:15:53;;;;;;;6.50;2.67;;;;;;;10.36;99.86;98887.38;4994736;28;20108;-80
2021/05/04 08:18:18;;;;;;;4.10;3.30;;;;;;;10.40;100.00;98887.34;5005391;28;20121;-78
2021/05/04 08:20:52;;;;;;;4.43;3.10;;;;;;;10.34;100.00;98870.88;4987275;28;20541;-79
2021/05/04 08:23:18;;;;;;;4.40;3.40;;;;;;;10.22;100.00;98890.16;5009725;28;20040;-77
2021/05/04 08:25:44;;;;;;;5.75;3.25;;;;;;;10.36;100.00;98894.69;4994430;28;20033;-78
2021/05/04 08:28:10;;;;;;;6.00;3.30;;;;;;;10.44;100.00;98883.47;4992879;28;20055;-77
2021/05/04 08:30:36;;;;;;;4.05;3.42;;;;;;;10.40;100.00;98887.34;5007231;28;20123;-77
2021/05/04 08:33:01;;;;;;;5.78;3.30;;;;;;;10.35;100.00;98872.41;5006994;28;20041;-78
2021/05/04 08:35:27;;;;;;;8.30;3.55;;;;;;;10.28;100.00;98871.72;5008979;28;20045;-78
2021/05/04 08:37:54;;;;;;;6.68;3.67;;;;;;;10.25;100.00;98878.63;5004435;28;20120;-77
2021/05/04 08:40:20;;;;;;;5.88;3.58;;;;;;;10.51;100.00;98869.94;5007357;28;20037;-79
2021/05/04 08:42:46;;;;;;;4.78;3.22;;;;;;;10.40;100.00;98855.06;4988570;28;20449;-81
2021/05/04 08:45:13;;;;;;;6.07;3.60;;;;;;;10.51;100.00;98883.41;4975451;28;20403;-78
2021/05/04 08:47:38;;;;;;;3.25;2.95;;;;;;;10.52;99.73;98859.97;5002350;28;20491;-78
2021/05/04 08:50:25;;;;;;;3.28;2.90;;;;;;;10.49;100.00;98852.69;4989633;28;20049;-78
2021/05/04 08:52:54;;;;;;;5.32;2.92;;;;;;;10.69;100.00;98848.25;4946886;28;22046;-77
2021/05/04 08:55:20;;;;;;;3.58;2.90;;;;;;;10.62;99.61;98851.03;4948653;28;20854;-77
2021/05/04 08:57:45;;;;;;;4.15;2.88;;;;;;;10.60;99.23;98854.13;4951836;28;20047;-76
2021/05/04 09:00:13;;;;;;;3.25;2.75;;;;;;;10.72;99.63;98860.94;4950002;28;20035;-79
2021/05/04 09:02:58;;;;;;;6.18;3.08;;;;;;;10.62;99.10;98862.56;4953064;28;20039;-78
2021/05/04 09:05:24;;;;;;;3.47;2.85;;;;;;;10.58;100.00;98853.75;4950524;28;20043;-76
2021/05/04 09:07:51;;;;;;;3.83;3.10;;;;;;;10.79;100.00;98858.94;4953091;28;20510;-77
2021/05/04 09:13:08;;;;;;;3.28;2.97;;;;;;;10.74;100.00;98818.97;4944657;28;20035;-77
2021/05/04 09:19:09;;;;;;;5.80;3.25;;;;;;;10.52;100.00;98831.13;4943426;28;20070;-78
2021/05/04 09:21:28;;;;;;;3.10;2.80;;;;;;;10.65;100.00;98821.38;4947121;28;20035;-78
2021/05/04 09:23:54;;;;;;;4.28;2.90;;;;;;;10.68;100.00;98823.25;4950528;28;20050;-77
2021/05/04 09:26:32;;;;;;;5.03;2.97;;;;;;;10.80;100.00;98809.28;4949428;28;20038;-79
2021/05/04 09:28:58;;;;;;;4.15;2.70;;;;;;;10.75;100.00;98807.06;4938272;28;20054;-78
2021/05/04 09:31:26;;;;;;;3.10;2.55;;;;;;;10.58;100.00;98805.31;5006553;28;20387;-77
2021/05/04 09:33:53;;;;;;;3.92;2.50;;;;;;;10.83;99.09;98813.13;5007290;28;20029;-76
2021/05/04 09:37:03;;;;;;;4.00;2.70;;;;;;;10.81;98.37;98802.75;5008332;28;20055;-76
2021/05/04 09:39:31;;;;;;;3.35;2.47;;;;;;;10.75;98.14;98796.28;5002838;28;20518;-77
2021/05/04 09:41:59;;;;;;;2.88;2.50;;;;;;;10.85;97.71;98800.78;5011122;28;20514;-78
2021/05/04 09:44:38;;;;;;;3.25;2.35;;;;;;;10.74;97.74;98792.03;4988824;28;20045;-77
2021/05/04 09:47:05;;;;;;;2.60;2.30;;;;;;;10.87;97.87;98803.06;5008814;28;20037;-77
2021/05/04 09:49:33;;;;;;;4.93;2.45;;;;;;;10.94;97.92;98800.28;5004941;28;20033;-77
2021/05/04 09:52:24;;;;;;;4.15;2.28;;;;;;;10.97;97.49;98785.25;5009420;28;20038;-78
2021/05/04 09:54:50;;;;;;;2.85;2.47;;;;;;;10.91;96.98;98787.66;5008861;28;21623;-78
2021/05/04 09:57:33;;;;;;;3.50;2.20;;;;;;;10.85;98.39;98781.94;5010783;28;20092;-78
2021/05/04 09:59:59;;;;;;;2.90;2.40;;;;;;;11.05;96.64;98773.25;4991762;28;20525;-78
2021/05/04 10:02:25;;;;;;;2.92;2.17;;;;;;;10.82;96.48;98769.28;4992710;28;20033;-79
2021/05/04 10:04:55;;;;;;;3.92;2.20;;;;;;;10.94;96.61;98776.06;5011063;28;20056;-78
2021/05/04 10:07:21;;;;;;;2.20;2.00;;;;;;;11.08;95.84;98778.59;5010658;28;20031;-78
2021/05/04 10:09:50;;;;;;;5.90;2.20;;;;;;;10.64;98.43;98759.88;4990149;28;20033;-79
2021/05/04 10:12:20;;;;;;;2.40;2.20;;;;;;;10.88;97.51;98753.44;4993741;28;20021;-78
2021/05/04 10:14:47;;;;;;;2.33;2.00;;;;;;;10.75;98.14;98755.91;5015921;28;20038;-79
2021/05/04 10:17:16;;;;;;;2.42;2.22;;;;;;;10.58;97.96;98756.09;5018717;28;20153;-78
2021/05/04 10:19:42;;;;;;;3.45;2.10;;;;;;;10.77;98.54;98758.19;5011306;28;20104;-79
2021/05/04 10:22:07;;;;;;;3.75;2.15;;;;;;;10.94;97.11;98751.06;4996893;28;20410;-80
2021/05/04 10:24:33;;;;;;;4.00;2.53;;;;;;;10.70;96.65;98747.50;4982605;28;20034;-79
2021/05/04 10:27:02;;;;;;;3.70;2.22;;;;;;;10.75;96.14;98758.59;5016489;28;20401;-78
2021/05/04 10:29:28;;;;;;;3.22;2.10;;;;;;;10.61;97.48;98755.28;5011748;28;20040;-79
2021/05/04 10:31:54;;;;;;;2.30;2.10;;;;;;;10.76;96.65;98743.22;4993910;28;20030;-80
2021/05/04 10:34:32;;;;;;;3.83;2.38;;;;;;;10.95;96.03;98752.59;5011740;28;20030;-77
2021/05/04 10:37:00;;;;;;;2.97;2.47;;;;;;;10.83;97.11;98748.50;5009549;28;20049;-78
2021/05/04 10:39:48;;;;;;;2.50;2.30;;;;;;;10.81;97.55;98742.75;5003974;28;20022;-78
2021/05/04 10:42:18;;;;;;;4.05;2.55;;;;;;;10.83;97.25;98735.03;5003716;28;20140;-79
2021/05/04 10:44:53;;;;;;;2.70;2.50;;;;;;;10.67;98.34;98738.28;5011366;28;20057;-79
2021/05/04 10:47:49;;;;;;;4.05;2.70;;;;;;;10.89;98.70;98734.19;5013960;28;20479;-81
2021/05/04 10:50:27;;;;;;;3.55;2.67;;;;;;;10.77;97.42;98760.88;4989743;28;20049;-78
2021/05/04 10:53:01;;;;;;;4.57;2.10;;;;;;;10.82;98.11;98747.72;4994852;28;20037;-78
2021/05/04 10:55:53;;;;;;;3.67;2.30;;;;;;;11.06;97.53;98731.66;4996442;28;20069;-80
2021/05/04 10:58:22;;;;;;;2.55;2.22;;;;;;;10.88;99.02;98737.28;4987149;28;20049;-77
2021/05/04 11:00:48;;;;;;;3.45;2.50;;;;;;;10.93;98.93;98736.06;4993747;28;20034;-80
2021/05/04 11:03:35;;;;;;;2.80;2.50;;;;;;;11.37;98.56;98743.94;5016338;28;20425;-79
2021/05/04 11:06:00;;;;;;;2.45;2.22;;;;;;;11.46;97.79;98738.78;5015979;28;20036;-80
2021/05/04 11:08:41;;;;;;;2.63;2.42;;;;;;;11.86;96.79;98742.47;4993687;28;20109;-80
2021/05/04 11:11:23;;;;;;;4.53;2.45;;;;;;;12.12;94.45;98736.22;5008371;28;20562;-79
2021/05/04 11:13:50;;;;;;;3.13;2.28;;;;;;;12.13;93.08;98752.03;5014470;28;20037;-79
2021/05/04 11:16:37;;;;;;;4.18;2.13;;;;;;;12.32;92.78;98729.72;4993987;28;20426;-79
2021/05/04 11:19:08;;;;;;;3.78;2.33;;;;;;;12.50;91.65;98727.44;5014992;28;20022;-80
2021/05/04 11:21:48;;;;;;;2.30;2.10;;;;;;;12.74;91.96;98733.53;4996093;28;20056;-79
2021/05/04 11:24:15;;;;;;;2.38;2.10;;;;;;;12.37;92.77;98729.22;5009891;28;20029;-79
2021/05/04 11:26:51;;;;;;;2.45;2.00;;;;;;;12.14;92.38;98721.16;5007830;28;20057;-80
2021/05/04 11:29:19;;;;;;;4.68;2.28;;;;;;;12.10;94.02;98728.56;4993870;28;20029;-79
2021/05/04 11:31:49;;;;;;;6.88;2.28;;;;;;;12.01;95.08;98712.16;4994661;28;20092;-78
2021/05/04 11:34:51;;;;;;;3.45;2.30;;;;;;;12.14;95.85;98707.66;5015266;28;20081;-80
2021/05/04 11:37:20;;;;;;;3.17;1.98;;;;;;;12.24;93.43;98714.81;4992189;28;20049;-78
2021/05/04 11:39:52;;;;;;;2.15;1.95;;;;;;;12.17;93.53;98717.66;5007214;28;20072;-80